Time;durP1;ratioP1;P1;durP2;ratioP2;P2;SDS_P1;SDS_P2;PMS_P1;PMS_P2;Temp;Humidity;BMP_temperature;BMP_pressure;BME280_temperature;BME280_humidity;BME280_pressure;Samples;Min_cycle;Max_cycle;Signal;HPM_P1;HPM_P2
2023/03/14 00:01:14;;;;;;;;;;;;;;;27.82;19.96;96731.19;5053919;28;19924;-89
2023/03/14 00:03:40;;;;;;;;;;;;;;;26.21;20.80;96732.47;5049682;28;19931;-88
2023/03/14 00:06:06;;;;;;;;;;;;;;;26.37;20.88;96732.78;5052380;28;19924;-88
2023/03/14 00:08:33;;;;;;;;;;;;;;;23.92;25.41;96727.19;5043299;28;20365;-88
2023/03/14 00:11:03;;;;;;;;;;;;;;;26.07;20.49;96714.25;5047141;28;20387;-89
2023/03/14 00:13:30;;;;;;;;;;;;;;;26.10;21.90;96713.31;5055914;28;19925;-89
2023/03/14 00:16:01;;;;;;;;;;;;;;;27.34;19.35;96705.34;5053763;28;19917;-89
2023/03/14 00:18:27;;;;;;;;;;;;;;;27.40;19.38;96700.59;5053563;28;19948;-89
2023/03/14 00:20:53;;;;;;;;;;;;;;;28.20;18.42;96704.00;5052348;28;19967;-89
2023/03/14 00:23:19;;;;;;;;;;;;;;;28.75;18.65;96690.53;5052921;28;20036;-89
2023/03/14 00:25:45;;;;;;;;;;;;;;;28.51;18.70;96685.13;5054010;28;20394;-88
2023/03/14 00:28:11;;;;;;;;;;;;;;;28.06;18.16;96692.31;5055159;28;19931;-89
2023/03/14 00:30:37;;;;;;;;;;;;;;;28.94;18.11;96686.06;5054490;28;19923;-89
2023/03/14 00:33:03;;;;;;;;;;;;;;;29.18;17.91;96685.78;5045517;28;19952;-89
2023/03/14 00:35:29;;;;;;;;;;;;;;;27.58;18.90;96690.34;5053416;28;20394;-89
2023/03/14 00:37:55;;;;;;;;;;;;;;;27.91;19.07;96685.91;5040800;28;19924;-88
2023/03/14 00:40:21;;;;;;;;;;;;;;;27.77;19.66;96675.47;5064248;28;19960;-88
2023/03/14 00:42:47;;;;;;;;;;;;;;;27.98;18.78;96684.75;5052784;28;20403;-88
2023/03/14 00:45:13;;;;;;;;;;;;;;;28.46;18.59;96657.59;5052192;28;20007;-88
2023/03/14 00:47:39;;;;;;;;;;;;;;;26.75;19.56;96661.59;5054216;28;19921;-88
2023/03/14 00:50:05;;;;;;;;;;;;;;;27.02;20.17;96652.06;5065646;28;19928;-88
2023/03/14 00:52:31;;;;;;;;;;;;;;;27.72;19.48;96639.53;5045263;28;20280;-89
2023/03/14 00:54:57;;;;;;;;;;;;;;;28.00;18.86;96625.78;5041143;28;19968;-89
2023/03/14 00:57:24;;;;;;;;;;;;;;;26.57;20.25;96619.53;5054920;28;19972;-88
2023/03/14 00:59:50;;;;;;;;;;;;;;;27.22;19.96;96613.44;5051660;28;19925;-89
2023/03/14 01:02:16;;;;;;;;;;;;;;;27.98;19.04;96617.78;5053835;28;20288;-88
2023/03/14 01:04:43;;;;;;;;;;;;;;;27.97;18.75;96598.53;5048921;28;19936;-88
2023/03/14 01:07:09;;;;;;;;;;;;;;;28.33;18.79;96597.94;5061341;28;19925;-88
2023/03/14 01:09:35;;;;;;;;;;;;;;;28.23;18.41;96587.28;5051071;28;20415;-89
2023/03/14 01:12:01;;;;;;;;;;;;;;;26.89;22.99;96581.16;5063816;28;19928;-89
2023/03/14 01:14:27;;;;;;;;;;;;;;;26.44;20.38;96568.41;5052029;28;19970;-88
2023/03/14 01:16:53;;;;;;;;;;;;;;;25.81;20.36;96564.16;5048294;28;19921;-89
2023/03/14 01:19:19;;;;;;;;;;;;;;;27.13;19.87;96550.78;5051361;28;19921;-89
2023/03/14 01:21:45;;;;;;;;;;;;;;;26.85;22.13;96555.25;5050729;28;20357;-89
2023/03/14 01:24:11;;;;;;;;;;;;;;;26.27;20.71;96556.09;5046218;28;19960;-86
2023/03/14 01:26:37;;;;;;;;;;;;;;;25.40;22.59;96551.81;5042055;28;20006;-89
2023/03/14 01:29:03;;;;;;;;;;;;;;;25.96;21.18;96545.25;5045680;28;19943;-89
2023/03/14 01:31:29;;;;;;;;;;;;;;;26.62;19.77;96542.84;5049587;28;19932;-86
2023/03/14 01:33:55;;;;;;;;;;;;;;;26.38;21.29;96551.41;5051313;28;19966;-86
2023/03/14 01:36:21;;;;;;;;;;;;;;;26.94;20.06;96541.03;5048145;28;20373;-86
2023/03/14 01:38:48;;;;;;;;;;;;;;;26.52;20.62;96525.28;5049887;28;19974;-87
2023/03/14 01:41:15;;;;;;;;;;;;;;;25.60;21.55;96518.25;5049832;28;20005;-87
2023/03/14 01:43:41;;;;;;;;;;;;;;;25.03;21.20;96526.00;5046871;28;19921;-87
2023/03/14 01:46:08;;;;;;;;;;;;;;;24.97;20.37;96519.47;5048061;28;19920;-87
2023/03/14 01:48:37;;;;;;;;;;;;;;;25.02;21.84;96529.31;5049349;28;19964;-88
2023/03/14 01:51:05;;;;;;;;;;;;;;;24.14;24.80;96508.31;5050595;28;20387;-87
2023/03/14 01:53:31;;;;;;;;;;;;;;;24.37;22.93;96499.97;5047806;28;20407;-87
2023/03/14 01:55:57;;;;;;;;;;;;;;;24.53;23.24;96507.22;5065443;28;19924;-87
2023/03/14 01:58:27;;;;;;;;;;;;;;;24.86;22.33;96496.78;5049035;28;19920;-88
2023/03/14 02:00:53;;;;;;;;;;;;;;;24.72;22.88;96508.69;5049933;28;19928;-87
2023/03/14 02:03:21;;;;;;;;;;;;;;;25.03;22.07;96488.72;5052747;28;19947;-87
2023/03/14 02:05:48;;;;;;;;;;;;;;;25.56;21.27;96492.38;5050275;28;19927;-87
2023/03/14 02:08:16;;;;;;;;;;;;;;;25.70;20.96;96483.19;5036498;28;19971;-86
2023/03/14 02:10:47;;;;;;;;;;;;;;;26.44;20.59;96479.09;5064381;28;20335;-86
2023/03/14 02:13:14;;;;;;;;;;;;;;;26.68;20.96;96474.09;5050273;28;20472;-86
2023/03/14 02:15:40;;;;;;;;;;;;;;;27.13;19.59;96464.22;5050969;28;19927;-87
2023/03/14 02:18:07;;;;;;;;;;;;;;;26.73;19.92;96459.31;5046508;28;20403;-86
2023/03/14 02:20:53;;;;;;;;;;;;;;;26.27;19.32;96452.75;5047578;28;19921;-89
2023/03/14 02:23:35;;;;;;;;;;;;;;;27.40;19.67;96441.25;5046397;28;20365;-89
2023/03/14 02:26:06;;;;;;;;;;;;;;;26.68;19.25;96451.56;5051649;28;19920;-87
2023/03/14 02:28:32;;;;;;;;;;;;;;;27.01;20.09;96442.03;5051168;28;19935;-86
2023/03/14 02:30:58;;;;;;;;;;;;;;;26.87;19.67;96446.47;5051674;28;19971;-87
2023/03/14 02:33:24;;;;;;;;;;;;;;;27.20;20.01;96440.47;5040125;28;19921;-86
2023/03/14 02:35:52;;;;;;;;;;;;;;;26.92;19.98;96428.09;5052132;28;20402;-87
2023/03/14 02:38:21;;;;;;;;;;;;;;;26.41;20.19;96426.63;5051984;28;19929;-87
2023/03/14 02:40:47;;;;;;;;;;;;;;;26.89;20.55;96412.19;5052370;28;20039;-87
2023/03/14 02:43:13;;;;;;;;;;;;;;;26.34;20.68;96409.38;5053736;28;19920;-86
2023/03/14 02:45:41;;;;;;;;;;;;;;;26.34;19.91;96406.53;5054412;28;19932;-87
2023/03/14 02:48:11;;;;;;;;;;;;;;;26.61;19.98;96406.94;5053755;28;20443;-87
2023/03/14 02:50:37;;;;;;;;;;;;;;;27.21;19.56;96405.41;5054108;28;19927;-86
2023/03/14 02:53:03;;;;;;;;;;;;;;;26.40;20.36;96401.75;5055416;28;19924;-86
2023/03/14 02:55:29;;;;;;;;;;;;;;;26.89;19.44;96398.09;5054615;28;19967;-86
2023/03/14 02:57:55;;;;;;;;;;;;;;;27.54;19.62;96397.31;5053289;28;20059;-86
2023/03/14 03:00:21;;;;;;;;;;;;;;;27.61;18.50;96401.75;5069834;28;19924;-86
2023/03/14 03:02:47;;;;;;;;;;;;;;;27.46;19.57;96387.75;5052206;28;19924;-86
2023/03/14 03:05:13;;;;;;;;;;;;;;;27.42;19.63;96385.16;5050229;28;20352;-86
2023/03/14 03:07:39;;;;;;;;;;;;;;;27.49;19.40;96383.19;5063103;28;20307;-86
2023/03/14 03:10:06;;;;;;;;;;;;;;;27.79;18.82;96376.81;5075063;28;19974;-86
2023/03/14 03:12:32;;;;;;;;;;;;;;;28.33;18.48;96383.38;5070254;28;19920;-86
2023/03/14 03:14:58;;;;;;;;;;;;;;;28.23;18.43;96372.78;5059564;28;19925;-86
2023/03/14 03:17:24;;;;;;;;;;;;;;;28.44;18.38;96379.84;5051276;28;19966;-86
2023/03/14 03:19:50;;;;;;;;;;;;;;;28.60;18.44;96371.50;5037698;28;19925;-86
2023/03/14 03:22:16;;;;;;;;;;;;;;;28.92;17.91;96366.50;5048914;28;19917;-86
2023/03/14 03:24:42;;;;;;;;;;;;;;;28.24;18.77;96363.06;5055743;28;19924;-86
2023/03/14 03:27:08;;;;;;;;;;;;;;;27.90;18.54;96362.00;5054259;28;19921;-86
2023/03/14 03:29:34;;;;;;;;;;;;;;;26.86;19.55;96356.84;5056225;28;19921;-86
2023/03/14 03:32:00;;;;;;;;;;;;;;;27.56;19.30;96349.69;5052738;28;19931;-86
2023/03/14 03:34:27;;;;;;;;;;;;;;;28.46;18.89;96355.47;5053637;28;20015;-86
2023/03/14 03:36:55;;;;;;;;;;;;;;;28.55;18.62;96352.44;5055578;28;19924;-86
2023/03/14 03:39:21;;;;;;;;;;;;;;;28.98;18.01;96353.19;5054394;28;19917;-86
2023/03/14 03:41:47;;;;;;;;;;;;;;;28.82;17.97;96347.47;5055671;28;19982;-86
2023/03/14 03:44:13;;;;;;;;;;;;;;;28.62;18.22;96342.75;5052832;28;19921;-86
2023/03/14 03:46:39;;;;;;;;;;;;;;;28.92;18.31;96360.84;5051750;28;20011;-86
2023/03/14 03:49:05;;;;;;;;;;;;;;;28.14;18.65;96356.81;5039004;28;19946;-86
2023/03/14 03:51:31;;;;;;;;;;;;;;;27.80;19.51;96352.94;5044336;28;20399;-86
2023/03/14 03:53:57;;;;;;;;;;;;;;;27.31;20.30;96350.41;5053587;28;19932;-86
2023/03/14 03:56:23;;;;;;;;;;;;;;;26.97;20.22;96359.78;5053681;28;19921;-86
2023/03/14 03:58:49;;;;;;;;;;;;;;;26.76;20.63;96373.13;5054581;28;19928;-86
2023/03/14 04:01:15;;;;;;;;;;;;;;;27.50;19.80;96377.03;5049742;28;19928;-85
2023/03/14 04:03:41;;;;;;;;;;;;;;;27.29;19.78;96361.41;5051913;28;20022;-86
2023/03/14 04:06:09;;;;;;;;;;;;;;;27.56;19.73;96368.63;5051704;28;19921;-86
2023/03/14 04:08:35;;;;;;;;;;;;;;;27.36;19.36;96363.78;5051775;28;19960;-86
2023/03/14 04:11:01;;;;;;;;;;;;;;;27.84;19.14;96367.59;5046932;28;20005;-85
2023/03/14 04:13:28;;;;;;;;;;;;;;;27.15;20.02;96359.47;5045505;28;19936;-86
2023/03/14 04:15:54;;;;;;;;;;;;;;;26.25;21.01;96354.00;5051970;28;20377;-86
2023/03/14 04:18:21;;;;;;;;;;;;;;;26.79;20.37;96357.28;5053053;28;19920;-86
2023/03/14 04:20:53;;;;;;;;;;;;;;;27.16;20.05;96347.72;5052920;28;19917;-86
2023/03/14 04:23:19;;;;;;;;;;;;;;;27.49;19.60;96367.03;5049925;28;19925;-86
2023/03/14 04:25:45;;;;;;;;;;;;;;;28.48;18.76;96383.19;5053459;28;19923;-86
2023/03/14 04:28:11;;;;;;;;;;;;;;;27.60;19.14;96389.69;5053505;28;20011;-86
2023/03/14 04:30:37;;;;;;;;;;;;;;;28.50;18.75;96381.41;5052674;28;20011;-86
2023/03/14 04:33:03;;;;;;;;;;;;;;;28.51;18.67;96382.97;5050743;28;19920;-86
2023/03/14 04:35:32;;;;;;;;;;;;;;;28.03;19.05;96396.22;5049873;28;19920;-86
2023/03/14 04:37:59;;;;;;;;;;;;;;;26.28;21.83;96402.88;5052986;28;19924;-86
2023/03/14 04:40:25;;;;;;;;;;;;;;;26.70;20.44;96398.34;5052356;28;20026;-86
2023/03/14 04:42:51;;;;;;;;;;;;;;;27.54;19.69;96394.50;5057740;28;20537;-87
2023/03/14 04:45:17;;;;;;;;;;;;;;;27.92;19.20;96404.59;5054232;28;19921;-86
2023/03/14 04:47:43;;;;;;;;;;;;;;;28.42;19.04;96410.63;5045478;28;19921;-86
2023/03/14 04:50:09;;;;;;;;;;;;;;;28.78;18.22;96417.56;5052502;28;19984;-86
2023/03/14 04:52:35;;;;;;;;;;;;;;;28.98;18.11;96420.22;5067795;28;20024;-86
2023/03/14 04:55:02;;;;;;;;;;;;;;;29.15;17.68;96409.75;5054213;28;19924;-86
2023/03/14 04:57:28;;;;;;;;;;;;;;;29.17;18.02;96410.03;5050971;28;19921;-86
2023/03/14 04:59:54;;;;;;;;;;;;;;;28.96;17.89;96406.59;5046968;28;19928;-86
2023/03/14 05:02:20;;;;;;;;;;;;;;;28.38;18.53;96416.50;5047408;28;20388;-86
2023/03/14 05:04:46;;;;;;;;;;;;;;;28.12;18.24;96417.88;5046319;28;19928;-86
2023/03/14 05:07:12;;;;;;;;;;;;;;;28.31;18.61;96407.75;5045536;28;19921;-86
2023/03/14 05:09:38;;;;;;;;;;;;;;;27.96;18.98;96408.72;5050797;28;20003;-85
2023/03/14 05:12:04;;;;;;;;;;;;;;;27.17;19.41;96408.44;5047140;28;19927;-86
2023/03/14 05:14:30;;;;;;;;;;;;;;;26.96;19.85;96426.63;5048218;28;19921;-86
2023/03/14 05:16:56;;;;;;;;;;;;;;;27.06;19.70;96424.44;5051031;28;19928;-86
2023/03/14 05:19:22;;;;;;;;;;;;;;;27.66;19.53;96432.81;5049410;28;19924;-88
2023/03/14 05:21:48;;;;;;;;;;;;;;;28.23;18.82;96429.22;5046948;28;19920;-88
2023/03/14 05:24:14;;;;;;;;;;;;;;;28.26;18.29;96422.59;5046541;28;19924;-88
2023/03/14 05:26:40;;;;;;;;;;;;;;;28.72;18.86;96414.69;5048908;28;19920;-87
2023/03/14 05:29:06;;;;;;;;;;;;;;;28.43;18.57;96396.00;5042832;28;19924;-87
2023/03/14 05:31:32;;;;;;;;;;;;;;;28.73;18.93;96387.97;5048609;28;19916;-87
2023/03/14 05:33:58;;;;;;;;;;;;;;;28.56;19.44;96387.88;5047609;28;20427;-86
2023/03/14 05:36:24;;;;;;;;;;;;;;;28.53;18.97;96388.88;5047003;28;19924;-88
2023/03/14 05:38:50;;;;;;;;;;;;;;;25.26;23.32;96381.97;5044563;28;19951;-87
2023/03/14 05:41:16;;;;;;;;;;;;;;;26.26;21.55;96396.94;5044538;28;19921;-88
2023/03/14 05:43:42;;;;;;;;;;;;;;;27.14;19.73;96378.41;5056301;28;19920;-88
2023/03/14 05:46:08;;;;;;;;;;;;;;;27.90;19.54;96368.41;5067066;28;19932;-90
2023/03/14 05:48:34;;;;;;;;;;;;;;;28.08;19.90;96369.34;5047959;28;20015;-88
2023/03/14 05:51:01;;;;;;;;;;;;;;;28.58;19.51;96373.25;5046824;28;19955;-90
2023/03/14 05:53:28;;;;;;;;;;;;;;;29.21;18.51;96371.00;5042360;28;19925;-90
2023/03/14 05:55:55;;;;;;;;;;;;;;;29.62;18.47;96360.00;5064522;28;19924;-91
2023/03/14 05:58:21;;;;;;;;;;;;;;;26.67;21.93;96359.16;5045790;28;19975;-86
2023/03/14 06:00:47;;;;;;;;;;;;;;;27.44;21.16;96362.13;5059989;28;19920;-87
2023/03/14 06:03:13;;;;;;;;;;;;;;;28.05;19.60;96357.78;5049691;28;20456;-87
2023/03/14 06:05:39;;;;;;;;;;;;;;;27.88;20.27;96364.56;5052659;28;19917;-87
2023/03/14 06:08:05;;;;;;;;;;;;;;;28.01;20.35;96362.09;5049956;28;19921;-87
2023/03/14 06:10:31;;;;;;;;;;;;;;;27.47;21.77;96368.81;5046848;28;20004;-86
2023/03/14 06:12:57;;;;;;;;;;;;;;;28.00;19.74;96367.00;5045399;28;19925;-87
2023/03/14 06:15:23;;;;;;;;;;;;;;;27.85;19.75;96366.31;5050130;28;19959;-87
2023/03/14 06:17:49;;;;;;;;;;;;;;;28.37;19.43;96374.66;5047315;28;20395;-87
2023/03/14 06:20:16;;;;;;;;;;;;;;;29.14;19.86;96366.59;5055809;28;19963;-88
2023/03/14 06:22:42;;;;;;;;;;;;;;;29.50;18.17;96369.78;5038654;28;19917;-87
2023/03/14 06:25:08;;;;;;;;;;;;;;;29.83;19.60;96356.44;5053501;28;19967;-87
2023/03/14 06:27:34;;;;;;;;;;;;;;;30.03;19.79;96363.91;5050528;28;20064;-87
2023/03/14 06:30:00;;;;;;;;;;;;;;;29.94;19.00;96359.28;5037025;28;19928;-87
2023/03/14 06:32:26;;;;;;;;;;;;;;;29.23;18.65;96360.72;5046954;28;19950;-87
2023/03/14 06:34:53;;;;;;;;;;;;;;;28.71;19.82;96354.59;5047237;28;20292;-88
2023/03/14 06:37:19;;;;;;;;;;;;;;;27.57;21.28;96339.94;5057054;28;19939;-88
2023/03/14 06:39:45;;;;;;;;;;;;;;;27.64;20.67;96342.31;5055644;28;19920;-89
2023/03/14 06:42:11;;;;;;;;;;;;;;;27.47;21.20;96347.00;5056269;28;19920;-87
2023/03/14 06:44:37;;;;;;;;;;;;;;;26.94;23.61;96333.38;5050420;28;19928;-87
2023/03/14 06:47:03;;;;;;;;;;;;;;;27.89;21.26;96337.91;5056234;28;19953;-89
2023/03/14 06:49:29;;;;;;;;;;;;;;;27.17;21.97;96323.91;5055838;28;19927;-89
2023/03/14 06:51:55;;;;;;;;;;;;;;;26.72;22.81;96319.03;5054538;28;19925;-88
2023/03/14 06:54:21;;;;;;;;;;;;;;;27.90;21.31;96328.94;5056080;28;19950;-89
2023/03/14 06:56:47;;;;;;;;;;;;;;;28.54;20.51;96324.72;5056159;28;19925;-87
2023/03/14 06:59:13;;;;;;;;;;;;;;;28.98;20.59;96327.75;5061708;28;19976;-88
2023/03/14 07:01:40;;;;;;;;;;;;;;;28.74;20.24;96327.41;5052601;28;20401;-88
2023/03/14 07:04:06;;;;;;;;;;;;;;;28.52;20.35;96316.00;5053009;28;19979;-88
2023/03/14 07:06:33;;;;;;;;;;;;;;;29.14;19.69;96312.88;5051615;28;19921;-87
2023/03/14 07:08:59;;;;;;;;;;;;;;;28.47;21.61;96311.84;5048402;28;19959;-87
2023/03/14 07:11:25;;;;;;;;;;;;;;;27.66;21.07;96307.97;5056773;28;19944;-86
2023/03/14 07:13:52;;;;;;;;;;;;;;;27.35;23.06;96311.53;5038470;28;19928;-87
2023/03/14 07:16:18;;;;;;;;;;;;;;;27.94;21.06;96315.34;5054178;28;19922;-87
2023/03/14 07:18:44;;;;;;;;;;;;;;;28.01;23.32;96291.56;5056388;28;20280;-89
2023/03/14 07:21:10;;;;;;;;;;;;;;;28.07;21.12;96309.31;5052615;28;19931;-88
2023/03/14 07:23:36;;;;;;;;;;;;;;;28.55;20.42;96312.13;5070780;28;19920;-88
2023/03/14 07:26:02;;;;;;;;;;;;;;;29.07;20.37;96310.56;5050890;28;19920;-89
2023/03/14 07:28:28;;;;;;;;;;;;;;;29.02;19.86;96304.88;5055844;28;19921;-88
2023/03/14 07:30:55;;;;;;;;;;;;;;;28.59;22.71;96312.72;5044366;28;20346;-88
2023/03/14 07:33:21;;;;;;;;;;;;;;;28.49;22.20;96311.34;5054421;28;19927;-90
2023/03/14 07:35:48;;;;;;;;;;;;;;;28.51;21.89;96300.31;5041356;28;20300;-88
2023/03/14 07:38:14;;;;;;;;;;;;;;;28.25;24.11;96320.19;5054919;28;19920;-87
2023/03/14 07:40:40;;;;;;;;;;;;;;;29.14;20.73;96310.06;5055446;28;20335;-89
2023/03/14 07:43:06;;;;;;;;;;;;;;;28.88;23.53;96303.81;5046582;28;19921;-87
2023/03/14 07:45:32;;;;;;;;;;;;;;;29.55;19.67;96298.28;5042555;28;20376;-87
2023/03/14 07:47:58;;;;;;;;;;;;;;;29.88;20.00;96293.44;5055665;28;19917;-87
2023/03/14 07:50:25;;;;;;;;;;;;;;;29.72;20.26;96301.91;5055409;28;19923;-87
2023/03/14 07:52:51;;;;;;;;;;;;;;;30.33;19.96;96307.53;5058231;28;19928;-89
2023/03/14 07:55:17;;;;;;;;;;;;;;;29.83;22.17;96290.59;5055783;28;19917;-89
2023/03/14 07:57:43;;;;;;;;;;;;;;;30.30;19.84;96306.47;5054989;28;19971;-89
2023/03/14 08:00:10;;;;;;;;;;;;;;;30.87;19.08;96308.59;5054424;28;19921;-89
2023/03/14 08:02:36;;;;;;;;;;;;;;;31.26;19.99;96297.84;5055387;28;19923;-88
2023/03/14 08:05:03;;;;;;;;;;;;;;;31.53;18.98;96304.63;5055586;28;19925;-90
2023/03/14 08:07:29;;;;;;;;;;;;;;;31.41;19.53;96323.03;5070219;28;19916;-91
2023/03/14 08:09:55;;;;;;;;;;;;;;;31.91;18.36;96325.47;5053604;28;19924;-86
2023/03/14 08:12:21;;;;;;;;;;;;;;;31.59;18.29;96318.78;5055038;28;19962;-88
2023/03/14 08:14:47;;;;;;;;;;;;;;;31.60;18.54;96326.75;5064799;28;19917;-87
2023/03/14 08:17:13;;;;;;;;;;;;;;;32.16;17.84;96315.72;5040741;28;19917;-88
2023/03/14 08:19:41;;;;;;;;;;;;;;;32.39;17.97;96313.44;5039544;28;19929;-89
2023/03/14 08:22:07;;;;;;;;;;;;;;;31.61;20.19;96324.69;5050570;28;19924;-90
2023/03/14 08:24:33;;;;;;;;;;;;;;;30.77;18.66;96336.47;5054844;28;19916;-88
2023/03/14 08:26:59;;;;;;;;;;;;;;;31.67;19.48;96329.03;5039111;28;19921;-89
2023/03/14 08:29:25;;;;;;;;;;;;;;;32.28;18.53;96324.91;5037588;28;19979;-90
2023/03/14 08:31:51;;;;;;;;;;;;;;;32.68;18.89;96318.28;5045956;28;19967;-90
2023/03/14 08:34:17;;;;;;;;;;;;;;;32.65;18.44;96310.84;5050134;28;19925;-91
2023/03/14 08:36:43;;;;;;;;;;;;;;;30.26;18.92;96308.03;5054530;28;20023;-90
2023/03/14 08:39:09;;;;;;;;;;;;;;;31.22;19.04;96310.75;5054377;28;19917;-93
2023/03/14 08:41:40;;;;;;;;;;;;;;;31.78;18.17;96303.41;5053430;28;20451;-89
2023/03/14 08:44:06;;;;;;;;;;;;;;;29.41;19.67;96303.69;5054782;28;19920;-88
2023/03/14 08:46:32;;;;;;;;;;;;;;;30.14;22.11;96303.66;5054613;28;19921;-87
2023/03/14 08:48:58;;;;;;;;;;;;;;;30.23;19.67;96292.06;5053622;28;19932;-88
2023/03/14 08:51:24;;;;;;;;;;;;;;;30.41;20.01;96295.13;5052568;28;19921;-88
2023/03/14 08:53:51;;;;;;;;;;;;;;;30.86;19.47;96307.06;5054367;28;19923;-88
2023/03/14 08:56:17;;;;;;;;;;;;;;;30.26;20.98;96305.19;5053639;28;20047;-88
2023/03/14 08:58:43;;;;;;;;;;;;;;;30.21;19.46;96314.47;5052793;28;19976;-87
2023/03/14 09:01:10;;;;;;;;;;;;;;;30.95;19.28;96329.44;5054174;28;20011;-88
2023/03/14 09:03:37;;;;;;;;;;;;;;;31.10;19.37;96335.56;5054287;28;19990;-88
2023/03/14 09:06:07;;;;;;;;;;;;;;;29.43;22.69;96328.63;5052513;28;19925;-86
2023/03/14 09:08:34;;;;;;;;;;;;;;;29.71;20.23;96340.72;5042241;28;19940;-88
2023/03/14 09:11:00;;;;;;;;;;;;;;;29.83;19.51;96341.53;5039050;28;19965;-90
2023/03/14 09:13:26;;;;;;;;;;;;;;;30.91;19.31;96336.69;5069141;28;20457;-89
2023/03/14 09:15:53;;;;;;;;;;;;;;;31.58;18.41;96343.53;5051612;28;20380;-88
2023/03/14 09:18:19;;;;;;;;;;;;;;;31.32;20.21;96315.56;5047709;28;19916;-87
2023/03/14 09:20:45;;;;;;;;;;;;;;;31.69;18.52;96332.13;5053657;28;19916;-88
2023/03/14 09:23:11;;;;;;;;;;;;;;;31.70;18.29;96344.22;5048804;28;19925;-88
2023/03/14 09:25:37;;;;;;;;;;;;;;;30.99;20.80;96344.16;5036449;28;19960;-88
2023/03/14 09:28:04;;;;;;;;;;;;;;;31.68;18.33;96341.94;5052535;28;19960;-88
2023/03/14 09:30:30;;;;;;;;;;;;;;;30.84;19.28;96343.66;5053067;28;19931;-87
2023/03/14 09:32:57;;;;;;;;;;;;;;;31.54;18.91;96331.72;5051808;28;20419;-88
2023/03/14 09:35:23;;;;;;;;;;;;;;;31.18;18.87;96341.47;5053942;28;19940;-88
2023/03/14 09:37:49;;;;;;;;;;;;;;;31.18;18.99;96344.31;5043161;28;19933;-88
2023/03/14 09:40:16;;;;;;;;;;;;;;;31.37;20.52;96356.53;5046541;28;19923;-88
2023/03/14 09:42:42;;;;;;;;;;;;;;;30.53;20.04;96352.50;5041563;28;19963;-87
2023/03/14 09:45:25;;;;;;;;;;;;;;;30.65;19.25;96365.34;5051752;28;19917;-88
2023/03/14 09:47:51;;;;;;;;;;;;;;;30.77;18.15;96361.19;5045709;28;19932;-87
2023/03/14 09:50:17;;;;;;;;;;;;;;;31.05;18.95;96367.56;5032526;28;20420;-87
2023/03/14 09:52:47;;;;;;;;;;;;;;;31.63;18.24;96362.59;5030563;28;19917;-87
2023/03/14 09:55:17;;;;;;;;;;;;;;;31.52;19.41;96351.34;5052366;28;19966;-88
2023/03/14 09:57:45;;;;;;;;;;;;;;;32.32;17.96;96359.47;5046927;28;19925;-88
2023/03/14 10:00:16;;;;;;;;;;;;;;;32.37;17.55;96370.75;5040364;28;19979;-88
2023/03/14 10:02:45;;;;;;;;;;;;;;;31.92;18.33;96381.75;5032308;28;20048;-88
2023/03/14 10:05:16;;;;;;;;;;;;;;;31.56;20.48;96385.09;5046327;28;19932;-88
2023/03/14 10:07:42;;;;;;;;;;;;;;;32.28;20.89;96395.94;5046999;28;19967;-88
2023/03/14 10:10:13;;;;;;;;;;;;;;;33.02;18.28;96392.59;5040208;28;19920;-87
2023/03/14 10:12:39;;;;;;;;;;;;;;;33.14;17.83;96391.91;5033042;28;20328;-89
2023/03/14 10:15:09;;;;;;;;;;;;;;;32.61;18.45;96404.13;5036980;28;19922;-90
2023/03/14 10:17:40;;;;;;;;;;;;;;;32.51;17.89;96397.28;5046537;28;20404;-90
2023/03/14 10:20:09;;;;;;;;;;;;;;;32.65;18.66;96391.16;5052597;28;19920;-90
2023/03/14 10:22:36;;;;;;;;;;;;;;;30.96;19.94;96376.38;5044851;28;20399;-89
2023/03/14 10:25:03;;;;;;;;;;;;;;;29.53;24.09;96394.97;5047826;28;19931;-90
2023/03/14 10:27:31;;;;;;;;;;;;;;;28.08;27.54;96401.94;5050812;28;20019;-88
2023/03/14 10:29:59;;;;;;;;;;;;;;;29.27;22.93;96392.34;5040511;28;20036;-88
2023/03/14 10:32:33;;;;;;;;;;;;;;;29.29;21.73;96395.44;5046488;28;19932;-89
2023/03/14 10:35:05;;;;;;;;;;;;;;;29.87;20.61;96401.47;5053214;28;19927;-89
2023/03/14 10:37:31;;;;;;;;;;;;;;;30.35;21.55;96401.22;5052722;28;19917;-90
2023/03/14 10:40:05;;;;;;;;;;;;;;;31.04;19.89;96400.03;5052128;28;19920;-89
2023/03/14 10:42:33;;;;;;;;;;;;;;;31.11;20.11;96404.41;5046820;28;20004;-88
2023/03/14 10:45:05;;;;;;;;;;;;;;;31.04;19.10;96404.94;5052805;28;19996;-89
2023/03/14 10:47:32;;;;;;;;;;;;;;;31.15;19.14;96400.00;5066536;28;19970;-89
2023/03/14 10:50:14;;;;;;;;;;;;;;;30.79;19.29;96403.97;5052169;28;19924;-89
2023/03/14 10:52:46;;;;;;;;;;;;;;;30.18;19.26;96395.53;5052993;28;20446;-89
2023/03/14 10:55:12;;;;;;;;;;;;;;;29.75;21.14;96391.41;5053186;28;20033;-89
2023/03/14 10:57:39;;;;;;;;;;;;;;;30.66;19.68;96384.69;5053520;28;19917;-89
2023/03/14 11:00:08;;;;;;;;;;;;;;;30.75;20.60;96395.75;5056114;28;20380;-89
2023/03/14 11:02:47;;;;;;;;;;;;;;;31.64;19.72;96398.22;5056346;28;19928;-90
2023/03/14 11:05:16;;;;;;;;;;;;;;;31.84;20.67;96391.34;5056365;28;19925;-87
2023/03/14 11:07:43;;;;;;;;;;;;;;;32.42;18.42;96386.22;5050231;28;19920;-89
2023/03/14 11:10:42;;;;;;;;;;;;;;;32.66;18.63;96392.72;5039898;28;20300;-89
2023/03/14 11:13:20;;;;;;;;;;;;;;;32.83;18.44;96395.38;5048449;28;19920;-88
2023/03/14 11:15:49;;;;;;;;;;;;;;;33.00;18.59;96378.13;5053640;28;19935;-88
2023/03/14 11:18:34;;;;;;;;;;;;;;;33.02;18.77;96382.00;5055242;28;19935;-90
2023/03/14 11:21:03;;;;;;;;;;;;;;;32.92;18.63;96380.03;5055468;28;20002;-90
2023/03/14 11:23:40;;;;;;;;;;;;;;;32.59;17.96;96364.13;5048884;28;20004;-87
2023/03/14 11:26:16;;;;;;;;;;;;;;;32.00;18.99;96365.69;5055748;28;20380;-88
2023/03/14 11:28:47;;;;;;;;;;;;;;;31.90;21.30;96355.19;5056100;28;19962;-90
2023/03/14 11:31:24;;;;;;;;;;;;;;;31.31;19.73;96358.66;5056139;28;19916;-90
2023/03/14 11:33:50;;;;;;;;;;;;;;;31.46;19.80;96352.66;5056097;28;20320;-89
2023/03/14 11:36:21;;;;;;;;;;;;;;;30.72;19.11;96359.16;5056084;28;20377;-88
2023/03/14 11:38:51;;;;;;;;;;;;;;;31.46;19.13;96361.94;5055848;28;20277;-88
2023/03/14 11:41:20;;;;;;;;;;;;;;;30.72;21.00;96362.75;5060722;28;19920;-88
2023/03/14 11:43:53;;;;;;;;;;;;;;;31.30;19.49;96354.25;5055463;28;19921;-88
2023/03/14 11:46:23;;;;;;;;;;;;;;;30.47;21.16;96349.72;5053546;28;20011;-88
2023/03/14 11:49:25;;;;;;;;;;;;;;;30.04;22.50;96363.38;5050718;28;19929;-87
2023/03/14 11:51:55;;;;;;;;;;;;;;;30.74;19.74;96368.69;5052108;28;19927;-88
2023/03/14 11:54:42;;;;;;;;;;;;;;;30.94;20.19;96366.84;5055247;28;19968;-88
2023/03/14 11:57:13;;;;;;;;;;;;;;;31.57;19.73;96363.94;5053777;28;19921;-88
2023/03/14 11:59:57;;;;;;;;;;;;;;;28.70;25.20;96377.72;5055435;28;19921;-88
2023/03/14 12:02:30;;;;;;;;;;;;;;;29.46;20.90;96374.91;5055881;28;19921;-88
2023/03/14 12:05:11;;;;;;;;;;;;;;;29.12;25.50;96371.19;5055525;28;19947;-87
2023/03/14 12:07:58;;;;;;;;;;;;;;;29.14;20.59;96363.75;5054817;28;19960;-88
2023/03/14 12:10:24;;;;;;;;;;;;;;;29.98;19.86;96364.69;5051620;28;19920;-88
2023/03/14 12:12:50;;;;;;;;;;;;;;;27.30;22.97;96363.75;5048246;28;19966;-88
2023/03/14 12:15:21;;;;;;;;;;;;;;;27.83;22.11;96363.22;5048570;28;20007;-88
2023/03/14 12:17:52;;;;;;;;;;;;;;;28.22;22.61;96359.94;5055104;28;19971;-88
2023/03/14 12:20:20;;;;;;;;;;;;;;;27.81;27.83;96353.72;5054876;28;19988;-86
2023/03/14 12:22:55;;;;;;;;;;;;;;;27.54;22.30;96357.09;5054510;28;19924;-88
2023/03/14 12:25:28;;;;;;;;;;;;;;;27.28;26.59;96357.06;5054050;28;19925;-88
2023/03/14 12:27:54;;;;;;;;;;;;;;;27.78;22.33;96337.78;5034926;28;20400;-88
2023/03/14 12:30:27;;;;;;;;;;;;;;;27.80;23.53;96341.66;5045138;28;20020;-88
2023/03/14 12:33:19;;;;;;;;;;;;;;;28.61;21.99;96347.63;5053557;28;20012;-88
2023/03/14 12:35:52;;;;;;;;;;;;;;;29.41;23.52;96339.66;5052844;28;19936;-88
2023/03/14 12:38:24;;;;;;;;;;;;;;;29.42;22.78;96327.88;5056392;28;20308;-88
2023/03/14 12:40:56;;;;;;;;;;;;;;;30.44;19.98;96327.31;5050040;28;19978;-89
2023/03/14 12:43:27;;;;;;;;;;;;;;;31.56;20.20;96337.63;5040505;28;19921;-87
2023/03/14 12:46:08;;;;;;;;;;;;;;;31.91;18.63;96331.16;5051463;28;19921;-89
2023/03/14 12:48:34;;;;;;;;;;;;;;;32.22;18.25;96338.38;5048825;28;20264;-88
2023/03/14 12:51:05;;;;;;;;;;;;;;;31.92;18.81;96329.88;5050445;28;19960;-90